3LF

Litchfield Municipal Airport

Litchfield, Illinois, USA
METAR K3LF 181615Z AUTO 35008KT 1 3/4SM BR OVC003 01/01 A3028 RMK AO2 T00120010
Observed Flight Rules
Nov-18 @ 16:15 UTC (15 minutes ago) Instrument Flight Rules
Wind Visibility Clouds Conditions
350° at 8 knots 1 3/4 miles
  • Overcast at 300' AGL
  • Mist
Temperatures Readings
Current 1°C / 34°F
Dewpoint 1°C / 34°F
Humidity 100%
Altimeter 30.28" Hg
Pressure 1025 hPa
Elevation 210
METAR K3LF 181615Z AUTO 35008KT 1 3/4SM BR OVC003 01/01 A3028 RMK AO2 T00120010
Observed Flight Rules
Nov-18 @ 16:15 UTC
(15 minutes ago)
LIFR
Wind Visibility
350° at 8 knots 1 3/4 miles
Clouds
  • Overcast at 300' AGL
Conditions
  • Mist
Temperature Dewpoint
1°C / 34°F 1°C / 34°F
Humidity Altimeter Pressure
100% 30.28" Hg 1025 hPa